Aeroporto :
LOGIN :

Iscrizione | Disclaimer

   EN    FR    IT 

 










Sommario :    VFR   VFR Marginale   IFR   IFR Intensivo   IFR Molto Intensivo
Visibilità : 
Base nubi : 
>= 8 km
>= 3000ft
5 / 8 km
1000 / 3000 ft
1500m / 5 km
500 / 1000 ft
800 / 1500m
200 / 500 ft
< 800m
< 200 ft
Simboli :   Temporali  Nebbia  Neve Forte  Precipitazioni Forti  Vento > 20 kt
SIGMETs :   Varie  Temporali  Ghiacco  Turbolenza  Onda orograficha  Ceneri Vulcaniche






- Altitudine del aeroporto : -13 ft
- Codice IATA : LEY


EHLE - Lelystad

ULTIMO METAR :
  • 031655Z AUTO 31010KT 280V340 9999 SCT037 BKN042 08/01 Q1018

METARs OBSOLETI :
  • 031625Z AUTO 30010KT 270V330 9999 BKN048 08/01 Q1018
  • 031555Z AUTO 29013KT 240V330 9999 FEW035 BKN047 09/01 Q1017
  • 031525Z AUTO 29012KT 260V320 9999 BKN034 OVC041 08/01 Q1017
  • 031455Z AUTO 28009KT 250V320 9999 BKN035 OVC045 08/01 Q1017 NOSIG

TAF TAF EHLE
Valido dal 03 a 12 ore il 04 a 18 ore UTC


031117Z 0312/0418 29013KT 9999 SCT025
PROB30
TEMPO 0312/0313 7000 -SHRA SCT020TCU
BECMG 0317/0320 19007KT
BECMG 0414/0417 14006KT



MetMap, La meteo Aeronautica in un colpo d'occhio ! - Copyright ORBIFLY Dicembre 2007 - Disclaimer

ORBIFLY MET'MAP TEAM :

Programmazione e sviluppo : Alexandra Zaïnal
Concezione : Baudouin d'Aumeries
Aiuto per la programmazione : Marc-Olivier Méhu
Supporto tecnico e logistico : Manuel Goepfert
Aiuto per la traduzione : Arnaldo La Scala

Contatto : metmap@orbifly.com




FONTI E CREDITI :

   NOAA